Time;durP1;ratioP1;P1;durP2;ratioP2;P2;SDS_P1;SDS_P2;PMS_P1;PMS_P2;Temp;Humidity;BMP_temperature;BMP_pressure;BME280_temperature;BME280_humidity;BME280_pressure;Samples;Min_cycle;Max_cycle;Signal;HPM_P1;HPM_P2
2021/07/06 00:00:47;;;;;;;7.50;4.63;;;;;;;15.19;84.87;99173.08;1662969;85;21038;-67
2021/07/06 00:03:16;;;;;;;6.22;5.53;;;;;;;15.17;84.90;99176.29;1641697;86;20935;-67
2021/07/06 00:05:42;;;;;;;7.15;5.15;;;;;;;15.13;84.90;99173.54;1663577;85;20966;-67
2021/07/06 00:08:09;;;;;;;6.03;5.23;;;;;;;15.11;85.04;99176.75;1664149;85;20966;-67
2021/07/06 00:10:36;;;;;;;8.00;4.78;;;;;;;15.04;84.99;99179.02;1664743;85;21422;-67
2021/07/06 00:13:03;;;;;;;5.72;5.10;;;;;;;15.02;85.13;99177.45;1661447;85;20959;-67
2021/07/06 00:15:31;;;;;;;5.37;4.85;;;;;;;15.02;85.12;99180.08;1671739;84;21049;-67
2021/07/06 00:17:58;;;;;;;6.67;5.33;;;;;;;15.00;85.11;99183.64;1667054;85;21417;-67
2021/07/06 00:20:27;;;;;;;5.50;4.87;;;;;;;15.00;85.25;99184.95;1661177;85;21537;-67
2021/07/06 00:23:04;;;;;;;5.00;4.50;;;;;;;15.00;85.29;99183.64;1641331;86;21159;-67
2021/07/06 00:25:32;;;;;;;9.98;4.75;;;;;;;15.00;85.26;99182.80;1661855;85;21517;-68
2021/07/06 00:27:59;;;;;;;7.58;5.03;;;;;;;14.96;85.23;99183.52;1642891;86;21140;-67
2021/07/06 00:30:25;;;;;;;7.40;5.25;;;;;;;14.96;85.28;99184.83;1641947;86;20935;-67
2021/07/06 00:32:53;;;;;;;5.70;5.12;;;;;;;14.93;85.25;99185.06;1667273;85;20979;-66
2021/07/06 00:35:20;;;;;;;7.70;6.25;;;;;;;14.90;85.27;99180.03;1700240;83;20962;-67
2021/07/06 00:37:47;;;;;;;7.92;5.87;;;;;;;14.88;85.25;99183.72;1696382;83;20930;-67
2021/07/06 00:40:15;;;;;;;9.25;6.05;;;;;;;14.84;85.27;99188.34;1694322;83;21073;-67
2021/07/06 00:42:43;;;;;;;6.00;5.40;;;;;;;14.80;85.32;99184.28;1695266;83;20942;-67
2021/07/06 00:45:13;;;;;;;8.33;5.75;;;;;;;14.77;85.37;99187.97;1697053;83;21449;-66
2021/07/06 00:47:41;;;;;;;6.50;5.12;;;;;;;14.76;85.44;99183.67;1687920;84;21101;-67
2021/07/06 00:50:13;;;;;;;7.35;4.62;;;;;;;14.72;85.43;99187.94;1684975;84;20991;-67
2021/07/06 00:52:40;;;;;;;9.08;5.50;;;;;;;14.65;85.40;99194.61;1684766;84;22107;-67
2021/07/06 00:55:08;;;;;;;6.28;5.37;;;;;;;14.62;85.55;99193.48;1656544;84;21488;-67
2021/07/06 00:57:35;;;;;;;7.70;5.70;;;;;;;14.62;85.62;99192.17;1692367;84;21460;-66
2021/07/06 01:00:07;;;;;;;5.75;4.87;;;;;;;14.63;85.65;99189.93;1657793;85;20932;-66
2021/07/06 01:02:34;;;;;;;9.70;5.15;;;;;;;14.63;85.63;99184.67;1656914;85;20958;-67
2021/07/06 01:05:01;;;;;;;6.85;5.55;;;;;;;14.64;85.69;99187.66;1685244;82;21036;-67
2021/07/06 01:07:27;;;;;;;7.35;5.83;;;;;;;14.63;85.70;99184.67;1687621;84;20927;-67
2021/07/06 01:09:54;;;;;;;9.27;6.30;;;;;;;14.61;85.72;99183.45;1681018;84;20970;-67
2021/07/06 01:12:21;;;;;;;7.15;5.58;;;;;;;14.60;85.72;99183.10;1682537;84;20962;-67
2021/07/06 01:14:48;;;;;;;6.40;5.25;;;;;;;14.59;85.72;99185.83;1683316;84;27229;-67
2021/07/06 01:17:14;;;;;;;8.13;5.23;;;;;;;14.55;85.77;99186.05;1686436;84;21065;-67
2021/07/06 01:19:42;;;;;;;8.70;5.20;;;;;;;14.51;85.71;99185.06;1686027;84;20950;-67
2021/07/06 01:22:09;;;;;;;7.75;5.95;;;;;;;14.47;85.70;99183.10;1687409;84;20926;-67
2021/07/06 01:24:38;;;;;;;16.70;6.78;;;;;;;14.46;85.77;99178.81;1686224;84;20962;-67
2021/07/06 01:27:05;;;;;;;5.90;5.28;;;;;;;14.45;85.84;99175.83;1663614;84;20907;-67
2021/07/06 01:29:32;;;;;;;8.25;6.15;;;;;;;14.40;85.89;99166.61;1682971;84;21299;-67
2021/07/06 01:31:59;;;;;;;7.57;6.77;;;;;;;14.46;85.92;99171.41;1649503;85;21417;-67
2021/07/06 01:34:26;;;;;;;7.70;6.30;;;;;;;14.45;86.10;99171.89;1650739;85;20975;-67
2021/07/06 01:36:53;;;;;;;8.23;6.20;;;;;;;14.51;86.25;99174.07;1661454;85;20999;-67
2021/07/06 01:39:20;;;;;;;7.37;5.97;;;;;;;14.52;86.16;99180.19;1657823;85;20916;-67
2021/07/06 01:41:47;;;;;;;8.58;6.72;;;;;;;14.53;86.21;99180.06;1683508;84;21438;-67
2021/07/06 01:44:26;;;;;;;8.83;7.33;;;;;;;14.55;86.34;99179.48;1684947;84;20956;-67
2021/07/06 01:46:54;;;;;;;10.70;6.90;;;;;;;14.60;86.40;99182.27;1673594;84;21608;-67
2021/07/06 01:49:22;;;;;;;7.47;6.72;;;;;;;14.65;86.51;99172.27;1649010;85;21457;-66
2021/07/06 01:51:48;;;;;;;8.15;7.35;;;;;;;14.65;86.39;99172.27;1652967;85;20950;-67
2021/07/06 01:54:15;;;;;;;11.18;6.92;;;;;;;14.66;86.46;99179.19;1632316;87;21302;-67
2021/07/06 01:56:46;;;;;;;8.55;6.90;;;;;;;14.64;86.35;99172.72;1609513;88;21523;-67
2021/07/06 01:59:13;;;;;;;10.43;6.60;;;;;;;14.63;86.32;99178.11;1609335;88;20902;-67
2021/07/06 02:01:40;;;;;;;7.37;6.45;;;;;;;14.61;86.33;99184.77;1655076;85;20994;-67
2021/07/06 02:04:06;;;;;;;8.88;6.50;;;;;;;14.61;86.45;99176.05;1633629;85;20961;-67
2021/07/06 02:06:33;;;;;;;8.87;6.33;;;;;;;14.58;86.35;99182.84;1654050;85;21048;-67
2021/07/06 02:09:01;;;;;;;7.57;6.73;;;;;;;14.55;86.44;99186.05;1658944;85;21186;-67
2021/07/06 02:11:28;;;;;;;7.45;6.72;;;;;;;14.54;86.52;99189.64;1653153;85;20891;-68
2021/07/06 02:13:55;;;;;;;8.75;7.12;;;;;;;14.54;86.66;99194.89;1652209;85;20961;-67
2021/07/06 02:16:22;;;;;;;7.85;6.87;;;;;;;14.55;86.55;99193.94;1655248;85;20993;-67
2021/07/06 02:18:49;;;;;;;8.33;7.50;;;;;;;14.54;86.58;99197.52;1650568;85;21062;-67
2021/07/06 02:21:16;;;;;;;8.73;7.37;;;;;;;14.57;86.64;99201.72;1649693;85;20899;-67
2021/07/06 02:23:45;;;;;;;8.80;8.00;;;;;;;14.58;86.70;99206.49;1649152;85;21632;-67
2021/07/06 02:26:12;;;;;;;11.10;7.72;;;;;;;14.62;86.86;99205.31;1651850;85;20926;-67
2021/07/06 02:28:39;;;;;;;9.78;7.42;;;;;;;14.65;86.80;99209.06;1649999;85;20998;-66
2021/07/06 02:31:05;;;;;;;8.73;7.73;;;;;;;14.68;86.78;99204.41;1656057;85;21139;-67
2021/07/06 02:33:33;;;;;;;8.95;8.00;;;;;;;14.70;86.85;99205.59;1650434;85;20968;-67
2021/07/06 02:36:03;;;;;;;10.72;8.03;;;;;;;14.76;86.92;99208.64;1653768;85;21125;-67
2021/07/06 02:38:30;;;;;;;8.13;7.33;;;;;;;14.84;86.99;99210.69;1654850;85;21060;-67
2021/07/06 02:40:56;;;;;;;9.35;7.72;;;;;;;14.86;86.80;99214.05;1655043;85;20988;-67
2021/07/06 02:43:23;;;;;;;10.43;8.63;;;;;;;14.88;86.76;99217.89;1653089;85;21052;-67
2021/07/06 02:45:51;;;;;;;10.90;7.75;;;;;;;14.95;87.05;99212.05;1650988;85;20963;-66
2021/07/06 02:48:17;;;;;;;11.10;8.33;;;;;;;15.04;87.01;99217.59;1659260;85;21010;-67
2021/07/06 02:50:44;;;;;;;9.43;8.53;;;;;;;15.17;87.14;99220.52;1665464;85;21544;-67
2021/07/06 02:53:12;;;;;;;9.53;8.65;;;;;;;15.38;87.38;99219.41;1665291;85;21496;-67
2021/07/06 02:55:40;;;;;;;9.28;7.80;;;;;;;15.85;87.62;99222.88;1665108;85;22154;-67
2021/07/06 02:58:07;;;;;;;8.05;7.28;;;;;;;16.11;86.89;99225.28;1665030;85;21481;-67
2021/07/06 03:00:35;;;;;;;8.68;7.87;;;;;;;16.54;87.40;99224.52;1658125;85;21481;-67
2021/07/06 03:03:07;;;;;;;11.38;7.53;;;;;;;17.05;86.81;99223.92;1634448;87;20958;-67
2021/07/06 03:05:35;;;;;;;7.35;6.65;;;;;;;17.55;86.71;99218.89;1652640;85;20995;-67
2021/07/06 03:08:03;;;;;;;7.10;6.40;;;;;;;18.16;86.43;99217.30;1651824;85;21101;-67
2021/07/06 03:10:37;;;;;;;9.73;7.08;;;;;;;18.60;85.50;99220.48;1659145;85;21519;-67
2021/07/06 03:13:04;;;;;;;14.33;7.80;;;;;;;18.99;85.08;99223.58;1658796;85;21002;-68
2021/07/06 03:15:32;;;;;;;8.00;6.72;;;;;;;19.53;85.12;99224.47;1631762;87;20985;-68
2021/07/06 03:18:00;;;;;;;11.12;6.12;;;;;;;20.13;84.87;99223.19;1630743;87;22049;-67
2021/07/06 03:20:28;;;;;;;7.05;6.28;;;;;;;20.53;83.52;99226.55;1658623;85;21056;-68
2021/07/06 03:22:56;;;;;;;7.53;6.58;;;;;;;20.86;83.05;99221.58;1663381;85;20971;-68
2021/07/06 03:25:25;;;;;;;7.75;6.37;;;;;;;21.18;82.80;99224.55;1662160;85;20929;-67
2021/07/06 03:27:54;;;;;;;7.25;6.60;;;;;;;21.59;82.65;99218.28;1662946;85;20902;-68
2021/07/06 03:30:24;;;;;;;7.05;6.12;;;;;;;22.18;83.09;99221.63;1660232;85;20887;-68
2021/07/06 03:32:54;;;;;;;9.10;6.37;;;;;;;22.83;82.98;99224.52;1661679;85;22575;-68
2021/07/06 03:35:20;;;;;;;8.48;6.30;;;;;;;23.24;82.11;99225.92;1661834;85;20942;-68
2021/07/06 03:37:47;;;;;;;9.93;6.65;;;;;;;23.64;81.88;99213.60;1660455;85;20974;-67
2021/07/06 03:40:14;;;;;;;9.40;6.45;;;;;;;24.08;81.41;99221.17;1632422;87;20986;-68
2021/07/06 03:42:41;;;;;;;6.60;5.85;;;;;;;24.73;81.67;99221.41;1633126;87;20922;-68
2021/07/06 03:45:11;;;;;;;8.33;6.00;;;;;;;25.48;81.38;99215.91;1639346;87;21134;-68
2021/07/06 03:47:38;;;;;;;8.23;6.12;;;;;;;26.17;80.55;99214.39;1636073;87;21033;-68
2021/07/06 03:50:09;;;;;;;8.03;6.15;;;;;;;26.56;79.21;99217.59;1638866;87;20940;-68
2021/07/06 03:52:36;;;;;;;8.33;5.65;;;;;;;26.78;77.72;99218.47;1636635;87;20943;-68
2021/07/06 03:55:05;;;;;;;6.42;5.20;;;;;;;26.87;77.04;99219.17;1644264;87;20922;-68
2021/07/06 03:57:32;;;;;;;12.78;5.65;;;;;;;27.16;76.92;99217.43;1661159;84;21056;-68
2021/07/06 04:00:03;;;;;;;;;;;;;;;27.40;76.70;99218.38;1665395;85;20931;-68
2021/07/06 04:02:30;;;;;;;8.78;5.10;;;;;;;28.08;76.87;99224.55;1659192;85;20092;-68
2021/07/06 04:04:57;;;;;;;6.92;5.50;;;;;;;28.56;75.58;99219.22;1658375;85;21018;-68
2021/07/06 04:07:23;;;;;;;11.28;5.60;;;;;;;28.61;74.56;99222.14;1650359;85;21339;-68
2021/07/06 04:09:50;;;;;;;6.47;5.25;;;;;;;29.04;75.39;99221.86;1684701;84;21367;-69
2021/07/06 04:12:16;;;;;;;6.28;5.50;;;;;;;29.69;75.11;99220.80;1684752;84;20951;-68
2021/07/06 04:14:43;;;;;;;5.90;5.30;;;;;;;30.05;74.42;99224.36;1688590;84;20966;-68
2021/07/06 04:17:10;;;;;;;7.28;5.08;;;;;;;30.66;73.82;99222.28;1683830;84;21477;-68
2021/07/06 04:19:36;;;;;;;7.70;5.22;;;;;;;31.08;73.30;99226.20;1677770;84;21008;-68
2021/07/06 04:22:03;;;;;;;5.42;4.92;;;;;;;31.40;72.48;99224.35;1680485;84;21290;-68
2021/07/06 04:24:30;;;;;;;6.67;5.10;;;;;;;31.57;70.77;99221.92;1682294;84;20964;-68
2021/07/06 04:26:58;;;;;;;7.05;4.72;;;;;;;31.56;70.71;99224.83;1677454;84;20922;-68
2021/07/06 04:29:25;;;;;;;7.08;5.20;;;;;;;31.91;69.94;99226.52;1682619;84;20970;-67
2021/07/06 04:31:53;;;;;;;8.05;5.15;;;;;;;32.07;69.42;99222.41;1683184;84;21010;-69
2021/07/06 04:34:49;;;;;;;7.83;5.75;;;;;;;32.39;68.95;99226.30;1685715;84;21053;-68
2021/07/06 04:37:17;;;;;;;7.78;5.12;;;;;;;32.48;67.21;99217.67;1680897;84;20927;-68
2021/07/06 04:39:44;;;;;;;8.63;4.95;;;;;;;32.85;67.79;99219.47;1684901;84;21421;-69
2021/07/06 04:42:16;;;;;;;5.58;5.08;;;;;;;33.03;65.67;99215.39;1683801;84;20903;-68
2021/07/06 04:44:43;;;;;;;9.60;5.12;;;;;;;33.08;65.93;99211.48;1682553;84;20975;-68
2021/07/06 04:47:14;;;;;;;6.85;5.20;;;;;;;33.15;64.55;99214.88;1683654;84;21071;-68
2021/07/06 04:49:39;;;;;;;5.58;5.08;;;;;;;33.39;64.65;99210.34;1679227;84;20955;-69
2021/07/06 04:52:06;;;;;;;8.40;4.87;;;;;;;33.52;63.49;99191.72;1684722;84;20911;-69
2021/07/06 04:54:33;;;;;;;7.58;4.90;;;;;;;33.96;63.10;99212.48;1684075;84;20943;-69
2021/07/06 04:56:59;;;;;;;6.03;4.40;;;;;;;34.48;63.11;99217.95;1685775;84;20970;-69
2021/07/06 04:59:26;;;;;;;5.35;4.60;;;;;;;34.66;61.54;99218.84;1684484;84;21132;-69
2021/07/06 05:01:53;;;;;;;8.93;4.65;;;;;;;34.64;60.41;99225.03;1685174;84;20935;-69
2021/07/06 05:04:20;;;;;;;5.67;4.70;;;;;;;34.63;60.37;99224.76;1682687;84;21498;-69
2021/07/06 05:06:46;;;;;;;7.17;4.50;;;;;;;34.92;59.96;99230.44;1684961;84;20924;-70
2021/07/06 05:09:13;;;;;;;6.17;4.25;;;;;;;35.15;58.82;99231.41;1684652;84;20983;-69
2021/07/06 05:11:40;;;;;;;5.65;4.20;;;;;;;35.25;58.59;99234.85;1685440;84;21213;-70
2021/07/06 05:14:06;;;;;;;8.18;4.12;;;;;;;35.58;57.88;99238.95;1686677;84;21545;-70
2021/07/06 05:16:33;;;;;;;6.83;4.28;;;;;;;35.53;56.92;99238.02;1686072;84;20986;-69
2021/07/06 05:18:59;;;;;;;7.95;4.45;;;;;;;35.44;56.52;99235.44;1682799;84;20974;-69
2021/07/06 05:21:26;;;;;;;4.40;4.00;;;;;;;35.64;55.76;99248.00;1678161;84;21003;-70
2021/07/06 05:23:53;;;;;;;4.80;4.17;;;;;;;35.62;55.03;99246.06;1656918;85;21802;-70
2021/07/06 05:26:19;;;;;;;7.30;4.05;;;;;;;35.54;54.43;99249.16;1685687;84;20982;-69
2021/07/06 05:28:46;;;;;;;6.17;4.00;;;;;;;35.24;52.97;99250.31;1689340;84;21473;-69
2021/07/06 05:31:12;;;;;;;6.30;4.10;;;;;;;35.02;52.67;99252.06;1688757;84;20976;-69
2021/07/06 05:33:39;;;;;;;3.70;3.40;;;;;;;35.11;52.95;99253.33;1688550;84;20928;-69
2021/07/06 05:36:05;;;;;;;22.80;20.57;;;;;;;35.14;52.24;99251.48;1653004;85;22170;-68
2021/07/06 05:38:32;;;;;;;5.30;4.78;;;;;;;35.19;51.92;99259.18;1688160;84;20888;-68
2021/07/06 05:41:01;;;;;;;4.58;3.87;;;;;;;35.19;51.50;99262.44;1654667;84;20992;-68
2021/07/06 05:43:28;;;;;;;5.95;3.77;;;;;;;35.16;50.68;99264.28;1651542;85;20996;-69
2021/07/06 05:45:55;;;;;;;6.85;3.33;;;;;;;34.98;50.62;99271.54;1686114;84;20934;-68
2021/07/06 05:48:22;;;;;;;3.77;3.02;;;;;;;35.07;50.07;99272.53;1682234;84;21065;-69
2021/07/06 05:50:49;;;;;;;4.78;3.70;;;;;;;34.95;49.81;99276.09;1672398;84;20975;-69
2021/07/06 05:53:17;;;;;;;4.33;3.17;;;;;;;34.86;49.19;99278.88;1678699;84;20938;-69
2021/07/06 05:55:43;;;;;;;4.75;3.33;;;;;;;34.62;48.51;99282.73;1677355;84;20976;-69
2021/07/06 05:58:11;;;;;;;7.47;3.50;;;;;;;34.50;48.51;99288.98;1677130;84;20968;-70
2021/07/06 06:00:39;;;;;;;6.12;3.62;;;;;;;34.26;48.04;99287.40;1680416;84;22166;-70
2021/07/06 06:03:10;;;;;;;4.83;3.55;;;;;;;34.13;48.31;99291.70;1676885;84;20979;-69
2021/07/06 06:05:40;;;;;;;5.72;3.20;;;;;;;34.29;48.46;99293.69;1652207;84;20940;-70
2021/07/06 06:08:07;;;;;;;11.73;4.00;;;;;;;34.49;47.66;99292.77;1649956;85;21459;-69
2021/07/06 06:10:35;;;;;;;4.58;3.42;;;;;;;34.24;47.17;99297.64;1653960;85;21440;-69
2021/07/06 06:13:02;;;;;;;8.88;3.98;;;;;;;34.07;47.37;99301.06;1651891;85;21065;-68
2021/07/06 06:15:29;;;;;;;6.25;3.67;;;;;;;34.14;46.97;99300.11;1680214;84;20927;-69
2021/07/06 06:17:55;;;;;;;8.43;3.80;;;;;;;33.82;46.42;99306.68;1681754;84;20895;-69
2021/07/06 06:20:22;;;;;;;4.17;3.77;;;;;;;33.59;46.34;99306.13;1684291;84;20927;-69
2021/07/06 06:22:49;;;;;;;3.92;3.60;;;;;;;33.41;46.38;99307.52;1692920;84;20946;-71
2021/07/06 06:25:15;;;;;;;3.65;3.35;;;;;;;33.30;45.57;99309.66;1686943;84;21052;-69
2021/07/06 06:27:42;;;;;;;3.67;3.37;;;;;;;33.35;46.34;99309.27;1687412;84;20959;-67
2021/07/06 06:30:11;;;;;;;5.87;3.90;;;;;;;33.67;47.00;99310.89;1685242;84;20944;-69
2021/07/06 06:32:37;;;;;;;5.15;3.67;;;;;;;34.11;46.24;99314.13;1686244;84;20954;-67
2021/07/06 06:35:05;;;;;;;3.77;3.47;;;;;;;34.03;46.00;99313.41;1656190;85;20986;-68
2021/07/06 06:37:32;;;;;;;7.12;3.75;;;;;;;34.20;45.76;99310.00;1657842;85;20934;-68
2021/07/06 06:39:58;;;;;;;4.92;3.70;;;;;;;34.29;45.61;99309.95;1658850;85;20946;-68
2021/07/06 06:42:25;;;;;;;4.87;3.72;;;;;;;34.19;45.01;99302.94;1658095;85;20933;-68
2021/07/06 06:44:52;;;;;;;4.97;3.50;;;;;;;33.99;44.83;99305.45;1687850;84;20978;-68
2021/07/06 06:47:18;;;;;;;5.20;3.27;;;;;;;33.70;44.60;99305.03;1686740;84;21418;-68
2021/07/06 06:49:45;;;;;;;3.92;3.52;;;;;;;33.39;44.26;99300.17;1687527;84;21512;-68
2021/07/06 06:52:12;;;;;;;6.83;4.05;;;;;;;33.21;44.37;99303.22;1686215;84;20919;-68
2021/07/06 06:54:39;;;;;;;3.75;3.45;;;;;;;32.85;44.15;99308.69;1686093;84;20927;-67
2021/07/06 06:57:06;;;;;;;4.47;3.60;;;;;;;32.31;43.82;99302.52;1688541;84;20918;-68
2021/07/06 06:59:32;;;;;;;5.70;3.72;;;;;;;32.08;44.37;99299.13;1691062;84;21333;-68
2021/07/06 07:02:17;;;;;;;4.22;3.77;;;;;;;32.10;44.25;99297.04;1686923;84;21053;-67
2021/07/06 07:04:49;;;;;;;4.70;3.35;;;;;;;32.01;44.44;99300.23;1683537;84;20899;-67
2021/07/06 07:07:17;;;;;;;6.40;3.20;;;;;;;32.07;44.50;99299.37;1683252;84;20954;-67
2021/07/06 07:09:44;;;;;;;3.37;3.08;;;;;;;32.06;44.49;99303.92;1688494;84;20934;-67
2021/07/06 07:12:11;;;;;;;8.35;3.55;;;;;;;32.14;44.77;99301.46;1686967;84;20906;-67
2021/07/06 07:14:39;;;;;;;4.97;3.45;;;;;;;32.27;44.57;99308.09;1687321;84;21789;-68
2021/07/06 07:17:06;;;;;;;5.12;3.50;;;;;;;32.22;44.61;99305.23;1688943;84;21469;-68
2021/07/06 07:19:33;;;;;;;6.00;3.80;;;;;;;32.15;44.69;99301.75;1683490;84;20939;-67
2021/07/06 07:22:00;;;;;;;4.12;3.12;;;;;;;32.25;45.16;99312.88;1686149;84;20926;-67
2021/07/06 07:24:27;;;;;;;6.17;3.33;;;;;;;32.67;45.01;99311.72;1685881;84;21061;-67
2021/07/06 07:26:53;;;;;;;3.87;3.40;;;;;;;32.50;44.51;99309.33;1685100;84;20983;-67
2021/07/06 07:29:20;;;;;;;6.80;3.77;;;;;;;31.56;44.38;99308.47;1661510;85;20974;-67
2021/07/06 07:31:47;;;;;;;5.22;3.22;;;;;;;31.56;44.38;99308.47;1690236;84;20951;-67
2021/07/06 07:34:13;;;;;;;4.03;3.50;;;;;;;31.03;44.29;99307.43;1691526;84;21490;-66
2021/07/06 07:36:44;;;;;;;9.70;3.83;;;;;;;30.65;44.66;99306.86;1693261;84;20939;-67
2021/07/06 07:39:09;;;;;;;4.35;3.65;;;;;;;30.33;44.77;99306.72;1688883;84;21033;-66
2021/07/06 07:41:36;;;;;;;7.10;3.58;;;;;;;29.97;45.08;99314.75;1689380;84;20986;-67
2021/07/06 07:44:04;;;;;;;7.58;3.37;;;;;;;29.49;44.91;99317.57;1689916;84;20919;-66
2021/07/06 07:46:30;;;;;;;3.35;3.05;;;;;;;28.98;45.12;99321.56;1685155;84;20916;-67
2021/07/06 07:48:58;;;;;;;4.53;4.08;;;;;;;28.44;45.42;99322.87;1678097;84;20979;-66
2021/07/06 07:51:24;;;;;;;4.22;3.83;;;;;;;28.22;45.83;99322.08;1663007;85;21132;-67
2021/07/06 07:53:51;;;;;;;5.60;3.98;;;;;;;28.21;46.08;99323.94;1674714;84;20920;-66
2021/07/06 07:56:17;;;;;;;4.20;3.83;;;;;;;28.03;46.10;99328.44;1663726;85;20987;-66
2021/07/06 07:58:44;;;;;;;;;;;;;;;27.59;46.50;99336.73;1662791;85;20948;-66
2021/07/06 08:01:10;;;;;;;6.25;3.70;;;;;;;27.44;47.29;99332.23;1662867;85;20130;-66
2021/07/06 08:03:37;;;;;;;;;;;;;;;27.52;47.39;99327.78;1668997;85;21069;-66
2021/07/06 08:06:03;;;;;;;4.87;3.45;;;;;;;27.47;47.60;99332.88;1662355;85;20127;-66
2021/07/06 08:08:30;;;;;;;4.85;4.25;;;;;;;27.43;47.80;99326.56;1658111;85;20944;-65
2021/07/06 08:10:58;;;;;;;;;;;;;;;27.44;47.81;99327.39;1660734;85;21480;-66
2021/07/06 08:13:26;;;;;;;5.40;3.95;;;;;;;27.56;48.61;99331.72;1670494;85;20151;-66
2021/07/06 08:15:54;;;;;;;6.67;4.25;;;;;;;27.64;48.24;99339.16;1669959;85;21442;-67
2021/07/06 08:18:21;;;;;;;4.47;4.08;;;;;;;27.67;48.78;99335.23;1662338;85;20957;-66
2021/07/06 08:20:48;;;;;;;;;;;;;;;27.71;48.66;99339.20;1669016;85;21591;-67
2021/07/06 08:23:14;;;;;;;7.65;3.98;;;;;;;27.72;48.82;99336.83;1659951;85;20480;-67
2021/07/06 08:25:41;;;;;;;;;;;;;;;27.67;48.91;99337.91;1675960;84;20934;-66
2021/07/06 08:28:07;;;;;;;6.03;4.50;;;;;;;27.65;49.36;99335.95;1671232;84;22011;-66
2021/07/06 08:30:34;;;;;;;;;;;;;;;27.70;49.56;99332.19;1672364;84;20934;-66
2021/07/06 08:33:01;;;;;;;7.53;3.65;;;;;;;27.80;49.42;99330.54;1670281;84;20449;-66
2021/07/06 08:35:27;;;;;;;;;;;;;;;27.75;49.30;99329.73;1661071;85;21461;-66
2021/07/06 08:37:54;;;;;;;4.70;3.92;;;;;;;27.61;49.53;99338.69;1674861;84;20120;-66
2021/07/06 08:40:20;;;;;;;6.10;3.70;;;;;;;27.76;49.73;99335.44;1654755;85;21874;-66
2021/07/06 08:42:52;;;;;;;3.83;3.25;;;;;;;27.88;49.65;99337.94;1690891;83;20904;-66
2021/07/06 08:45:16;;;;;;;4.28;3.60;;;;;;;27.87;49.53;99338.97;1688180;83;20956;-66
2021/07/06 08:47:53;;;;;;;4.10;3.70;;;;;;;27.82;49.74;99337.37;1689164;83;20900;-67
2021/07/06 08:50:20;;;;;;;10.00;4.12;;;;;;;27.64;49.61;99343.66;1684898;84;20918;-66
2021/07/06 08:52:49;;;;;;;3.47;2.92;;;;;;;27.49;50.05;99338.89;1683477;84;21083;-70
2021/07/06 08:55:22;;;;;;;3.50;3.20;;;;;;;27.68;50.15;99335.57;1685129;84;21532;-68
2021/07/06 08:57:52;;;;;;;4.92;3.30;;;;;;;27.80;50.04;99338.07;1656770;85;20908;-67
2021/07/06 09:00:21;;;;;;;3.65;3.20;;;;;;;27.91;50.16;99334.55;1664679;84;20995;-67
2021/07/06 09:03:04;;;;;;;6.45;3.45;;;;;;;27.91;50.05;99338.58;1686249;84;20981;-66
2021/07/06 09:05:32;;;;;;;3.90;3.35;;;;;;;27.70;49.60;99337.55;1662000;85;21013;-66
2021/07/06 09:07:59;;;;;;;4.67;3.17;;;;;;;27.50;50.42;99332.49;1664355;85;21007;-67
2021/07/06 09:10:36;;;;;;;2.62;2.42;;;;;;;27.49;50.19;99329.50;1662825;85;21505;-67
2021/07/06 09:13:28;;;;;;;5.50;2.62;;;;;;;27.67;50.84;99329.38;1662341;85;21010;-67
2021/07/06 09:15:57;;;;;;;4.20;2.95;;;;;;;27.93;50.35;99325.81;1662463;85;20935;-67
2021/07/06 09:18:30;;;;;;;3.58;2.50;;;;;;;27.89;50.24;99331.53;1662435;85;21875;-67
2021/07/06 09:21:02;;;;;;;3.02;2.72;;;;;;;28.01;50.12;99333.72;1661427;84;21002;-67
2021/07/06 09:23:34;;;;;;;3.37;2.55;;;;;;;28.09;49.99;99338.91;1664961;85;21517;-67
2021/07/06 09:26:25;;;;;;;3.60;2.55;;;;;;;28.03;50.09;99330.30;1656650;85;20939;-67
2021/07/06 09:28:56;;;;;;;10.72;2.60;;;;;;;27.89;50.06;99337.41;1659332;85;21019;-67
2021/07/06 09:31:40;;;;;;;6.60;2.75;;;;;;;27.80;50.14;99334.05;1658342;85;21149;-66
2021/07/06 09:34:13;;;;;;;4.85;2.60;;;;;;;27.78;50.02;99329.34;1656222;85;21391;-67
2021/07/06 09:36:50;;;;;;;4.20;2.77;;;;;;;27.58;50.24;99327.01;1660925;85;21488;-67
2021/07/06 09:39:23;;;;;;;3.95;2.52;;;;;;;27.84;50.77;99331.31;1665560;85;20926;-67
2021/07/06 09:42:00;;;;;;;5.62;2.42;;;;;;;28.12;50.58;99325.13;1669719;84;21464;-67
2021/07/06 09:44:36;;;;;;;6.45;2.45;;;;;;;28.31;50.32;99327.09;1689718;84;21103;-67
2021/07/06 09:47:07;;;;;;;3.25;2.00;;;;;;;28.39;50.18;99332.00;1680861;84;21476;-67
2021/07/06 09:49:38;;;;;;;1.90;1.80;;;;;;;28.60;50.46;99329.27;1689899;84;20946;-67
2021/07/06 09:52:17;;;;;;;4.85;2.40;;;;;;;28.59;49.54;99325.42;1664618;85;20939;-67
2021/07/06 09:54:49;;;;;;;2.95;2.42;;;;;;;28.40;49.55;99326.94;1679411;84;20909;-68
2021/07/06 09:57:28;;;;;;;2.87;1.57;;;;;;;28.18;49.58;99325.68;1678676;84;21057;-67
2021/07/06 10:00:08;;;;;;;2.67;2.25;;;;;;;28.29;49.64;99333.70;1677248;84;21363;-67
2021/07/06 10:02:35;;;;;;;5.42;2.20;;;;;;;28.36;49.70;99329.19;1676114;84;20878;-66
2021/07/06 10:05:08;;;;;;;3.08;2.30;;;;;;;28.37;49.08;99323.30;1676329;84;20946;-67
2021/07/06 10:07:38;;;;;;;5.03;2.50;;;;;;;28.11;49.12;99328.81;1677521;84;21492;-66
2021/07/06 10:10:12;;;;;;;2.83;2.00;;;;;;;27.91;49.40;99322.48;1675991;84;21149;-68
2021/07/06 10:12:41;;;;;;;3.72;2.55;;;;;;;28.02;49.36;99323.29;1673687;84;20949;-67
2021/07/06 10:15:10;;;;;;;14.15;3.22;;;;;;;28.23;49.48;99317.02;1678603;84;20965;-67
2021/07/06 10:17:39;;;;;;;5.20;2.30;;;;;;;28.40;49.39;99315.70;1664044;85;20984;-67
2021/07/06 10:20:12;;;;;;;3.05;2.58;;;;;;;28.51;49.52;99323.72;1646845;85;22334;-68
2021/07/06 10:22:39;;;;;;;2.87;2.47;;;;;;;28.71;49.57;99321.98;1650346;85;21024;-66
2021/07/06 10:25:10;;;;;;;6.58;3.00;;;;;;;28.77;49.35;99313.13;1677246;84;20895;-67
2021/07/06 10:27:42;;;;;;;4.45;3.08;;;;;;;28.89;49.40;99309.86;1678653;84;20955;-67
2021/07/06 10:30:16;;;;;;;2.55;2.10;;;;;;;28.94;49.19;99312.78;1689298;84;21513;-67
2021/07/06 10:32:52;;;;;;;3.12;2.50;;;;;;;28.91;48.83;99305.13;1660860;85;20918;-68
2021/07/06 10:35:43;;;;;;;2.50;2.10;;;;;;;28.97;49.24;99305.66;1666581;85;21049;-68
2021/07/06 10:38:33;;;;;;;2.60;2.40;;;;;;;28.86;48.68;99303.55;1656660;85;20856;-68
2021/07/06 10:41:13;;;;;;;2.77;2.30;;;;;;;28.58;48.65;99303.11;1664163;85;20918;-68
2021/07/06 10:43:48;;;;;;;3.67;2.30;;;;;;;28.46;48.61;99302.03;1688188;84;20970;-67
2021/07/06 10:46:29;;;;;;;4.55;2.35;;;;;;;28.33;48.58;99299.54;1693740;84;20966;-67
2021/07/06 10:49:03;;;;;;;3.77;2.60;;;;;;;28.02;48.45;99300.48;1687413;84;21095;-67
2021/07/06 10:51:41;;;;;;;2.75;2.10;;;;;;;28.04;48.86;99301.13;1669440;85;20882;-67
2021/07/06 10:54:19;;;;;;;3.85;2.62;;;;;;;28.02;48.74;99297.80;1661528;85;21508;-67
2021/07/06 10:57:07;;;;;;;3.08;2.37;;;;;;;28.01;48.95;99301.52;1647151;86;20899;-69
2021/07/06 10:59:36;;;;;;;5.20;2.77;;;;;;;28.23;49.16;99297.74;1659757;85;20998;-67
2021/07/06 11:02:13;;;;;;;5.90;2.47;;;;;;;28.54;49.16;99301.88;1636991;86;21305;-67
2021/07/06 11:04:46;;;;;;;6.10;2.45;;;;;;;28.50;48.61;99299.25;1631588;86;20934;-67
2021/07/06 11:07:19;;;;;;;3.33;2.30;;;;;;;28.40;48.69;99297.40;1654050;85;20934;-66
2021/07/06 11:09:54;;;;;;;2.90;2.08;;;;;;;28.67;48.96;99295.19;1659794;85;21479;-67
2021/07/06 11:12:31;;;;;;;26.40;3.35;;;;;;;29.00;48.94;99301.22;1661905;85;21844;-67
2021/07/06 11:15:02;;;;;;;2.42;2.15;;;;;;;29.30;49.09;99300.92;1655760;85;21099;-66
2021/07/06 11:17:45;;;;;;;4.28;2.58;;;;;;;29.39;48.55;99297.81;1696134;83;20942;-67
2021/07/06 11:20:38;;;;;;;4.03;2.20;;;;;;;29.13;48.33;99298.61;1693271;83;20968;-67
2021/07/06 11:23:08;;;;;;;5.78;2.50;;;;;;;29.01;48.52;99298.83;1694811;83;20946;-67
2021/07/06 11:25:38;;;;;;;5.03;1.90;;;;;;;29.28;48.75;99293.56;1696527;83;21501;-68
2021/07/06 11:28:26;;;;;;;4.05;2.10;;;;;;;29.63;48.69;99285.67;1668800;84;21677;-67
2021/07/06 11:30:59;;;;;;;3.25;2.33;;;;;;;29.74;48.26;99291.45;1631331;86;21587;-67
2021/07/06 11:33:36;;;;;;;3.37;2.10;;;;;;;29.58;48.07;99297.53;1635270;86;20990;-67
2021/07/06 11:36:30;;;;;;;2.33;2.10;;;;;;;29.48;47.93;99287.69;1635348;86;20989;-67
2021/07/06 11:38:57;;;;;;;3.33;2.15;;;;;;;29.61;47.96;99287.70;1657087;85;20963;-67
2021/07/06 11:41:26;;;;;;;2.37;1.98;;;;;;;29.89;48.04;99292.08;1655718;85;21861;-68
2021/07/06 11:43:53;;;;;;;2.45;2.02;;;;;;;29.96;47.45;99287.50;1654684;85;20925;-67